createdAt,value
2023-01-05T00:00:20.073Z,9.44
2023-01-05T00:02:50.823Z,9.46
2023-01-05T00:05:20.203Z,9.45
2023-01-05T00:07:49.543Z,9.38
2023-01-05T00:10:33.087Z,9.34
2023-01-05T00:13:20.180Z,9.39
2023-01-05T00:16:07.243Z,9.39
2023-01-05T00:18:55.518Z,9.42
2023-01-05T00:21:42.522Z,9.40
2023-01-05T00:24:11.944Z,9.43
2023-01-05T00:26:41.346Z,9.45
2023-01-05T00:29:10.759Z,9.47
2023-01-05T00:31:40.191Z,9.46
2023-01-05T00:34:10.941Z,9.49
2023-01-05T00:36:41.539Z,9.48
2023-01-05T00:39:11.097Z,9.48
2023-01-05T00:41:40.917Z,9.50
2023-01-05T00:44:10.651Z,9.57
2023-01-05T00:46:40.002Z,9.55
2023-01-05T00:49:10.936Z,9.58
2023-01-05T00:51:40.302Z,9.59
2023-01-05T00:54:09.981Z,9.64
2023-01-05T00:56:39.451Z,9.61
2023-01-05T00:59:08.851Z,9.61
2023-01-05T01:01:38.292Z,9.66
2023-01-05T01:04:07.864Z,9.70
2023-01-05T01:06:39.216Z,9.65
2023-01-05T01:09:08.787Z,9.66
2023-01-05T01:11:38.903Z,9.65
2023-01-05T01:14:09.726Z,9.61
2023-01-05T01:16:39.675Z,9.60
2023-01-05T01:19:10.800Z,9.62
2023-01-05T01:21:41.754Z,9.65
2023-01-05T01:24:16.855Z,9.59
2023-01-05T01:26:46.550Z,9.62
2023-01-05T01:29:17.324Z,9.63
2023-01-05T01:31:49.896Z,9.70
2023-01-05T01:34:19.894Z,9.79
2023-01-05T01:36:50.904Z,9.71
2023-01-05T01:39:25.107Z,9.67
2023-01-05T01:41:59.811Z,9.70
2023-01-05T01:44:58.433Z,9.68
2023-01-05T01:47:43.769Z,9.70
2023-01-05T01:50:20.630Z,9.78
2023-01-05T01:52:56.183Z,9.81
2023-01-05T01:55:27.296Z,9.88
2023-01-05T01:57:56.896Z,9.85
2023-01-05T02:00:26.476Z,9.77
2023-01-05T02:02:57.430Z,9.70
2023-01-05T02:05:32.729Z,9.70
2023-01-05T02:08:03.598Z,9.77
2023-01-05T02:10:57.205Z,9.71
2023-01-05T02:13:43.735Z,9.78
2023-01-05T02:16:33.089Z,9.79
2023-01-05T02:19:53.471Z,9.76
2023-01-05T02:23:14.083Z,9.91
2023-01-05T02:26:35.045Z,9.90
2023-01-05T02:30:00.752Z,10.00
2023-01-05T02:32:40.172Z,9.90
2023-01-05T02:35:21.776Z,9.87
2023-01-05T02:38:04.407Z,9.80
2023-01-05T02:40:40.839Z,9.74
2023-01-05T02:43:14.856Z,9.75
2023-01-05T02:45:44.345Z,9.68
2023-01-05T02:48:15.314Z,9.59
2023-01-05T02:50:54.483Z,9.46
2023-01-05T02:53:29.785Z,9.44
2023-01-05T02:56:05.228Z,9.35
2023-01-05T02:58:45.458Z,9.30
2023-01-05T03:01:23.780Z,9.22
2023-01-05T03:04:00.644Z,9.14
2023-01-05T03:06:35.906Z,9.14
2023-01-05T03:09:07.912Z,9.13
2023-01-05T03:12:09.246Z,9.13
2023-01-05T03:14:45.752Z,9.07
2023-01-05T03:17:26.663Z,9.11
2023-01-05T03:19:59.498Z,9.16
2023-01-05T03:22:51.120Z,9.14
2023-01-05T03:25:42.171Z,9.19
2023-01-05T03:28:38.797Z,9.25
2023-01-05T03:31:33.629Z,9.23
2023-01-05T03:34:28.469Z,9.29
2023-01-05T03:37:05.547Z,9.32
2023-01-05T03:39:37.432Z,9.35
2023-01-05T03:42:10.915Z,9.37
2023-01-05T03:44:45.776Z,9.38
2023-01-05T03:47:18.279Z,9.38
2023-01-05T03:49:48.355Z,9.38
2023-01-05T03:52:19.589Z,9.39
2023-01-05T03:54:49.037Z,9.44
2023-01-05T03:57:18.560Z,9.44
2023-01-05T03:59:48.228Z,9.40
2023-01-05T04:02:18.897Z,9.42
2023-01-05T04:04:49.112Z,9.37
2023-01-05T04:07:20.563Z,9.49
2023-01-05T04:09:50.682Z,9.48
2023-01-05T04:12:22.567Z,9.56
2023-01-05T04:14:53.513Z,9.62
2023-01-05T04:17:23.397Z,9.70
2023-01-05T04:19:52.811Z,9.67
2023-01-05T04:22:27.490Z,9.72
2023-01-05T04:24:58.448Z,9.74
2023-01-05T04:27:31.098Z,9.71
2023-01-05T04:30:00.708Z,9.76
2023-01-05T04:32:31.485Z,9.75
2023-01-05T04:35:07.054Z,9.74
2023-01-05T04:37:42.819Z,9.78
2023-01-05T04:40:13.478Z,9.83
2023-01-05T04:42:49.611Z,9.81
2023-01-05T04:45:19.167Z,9.80
2023-01-05T04:47:48.708Z,9.79
2023-01-05T04:50:21.479Z,9.81
2023-01-05T04:52:53.311Z,9.80
2023-01-05T04:55:24.187Z,9.75
2023-01-05T04:57:53.766Z,9.79
2023-01-05T05:00:24.246Z,9.80
2023-01-05T05:02:54.147Z,9.76
2023-01-05T05:05:23.652Z,9.80
2023-01-05T05:07:57.136Z,9.81
2023-01-05T05:10:30.406Z,9.82
2023-01-05T05:12:59.984Z,9.77
2023-01-05T05:15:30.943Z,9.75
2023-01-05T05:18:07.060Z,9.77
2023-01-05T05:20:39.406Z,9.75
2023-01-05T05:23:10.278Z,9.79
2023-01-05T05:25:39.814Z,9.73
2023-01-05T05:28:09.307Z,9.75
2023-01-05T05:30:39.457Z,9.82
2023-01-05T05:33:08.925Z,9.75
2023-01-05T05:35:38.443Z,9.77
2023-01-05T05:38:09.269Z,9.74
2023-01-05T05:40:38.694Z,9.72
2023-01-05T05:43:08.072Z,9.70
2023-01-05T05:45:37.541Z,9.64
2023-01-05T05:48:07.274Z,9.64
2023-01-05T05:50:36.705Z,9.68
2023-01-05T05:53:09.802Z,9.66
2023-01-05T05:55:39.226Z,9.63
2023-01-05T05:58:09.119Z,9.66
2023-01-05T06:00:38.642Z,9.71
2023-01-05T06:03:08.231Z,9.69
2023-01-05T06:05:37.780Z,9.71
2023-01-05T06:08:07.268Z,9.73
2023-01-05T06:10:38.083Z,9.73
2023-01-05T06:13:07.632Z,9.77
2023-01-05T06:15:37.087Z,9.75
2023-01-05T06:18:06.649Z,9.74
2023-01-05T06:20:36.461Z,9.76
2023-01-05T06:23:06.326Z,9.76
2023-01-05T06:25:37.297Z,9.70
2023-01-05T06:28:06.788Z,9.69
2023-01-05T06:30:36.272Z,9.73
2023-01-05T06:33:05.742Z,9.72
2023-01-05T06:35:35.192Z,9.73
2023-01-05T06:38:05.348Z,9.77
2023-01-05T06:40:34.763Z,9.76
2023-01-05T06:43:05.498Z,9.83
2023-01-05T06:45:34.950Z,9.79
2023-01-05T06:48:04.703Z,9.75
2023-01-05T06:50:34.229Z,9.77
2023-01-05T06:53:03.937Z,9.75
2023-01-05T06:55:34.109Z,9.79
2023-01-05T06:58:04.919Z,9.78
2023-01-05T07:00:34.439Z,9.71
2023-01-05T07:03:04.068Z,9.68
2023-01-05T07:05:33.683Z,9.59
2023-01-05T07:08:03.061Z,9.66
2023-01-05T07:10:32.553Z,9.65
2023-01-05T07:13:01.947Z,9.60
2023-01-05T07:15:32.715Z,9.59
2023-01-05T07:18:02.112Z,9.62
2023-01-05T07:20:31.572Z,9.63
2023-01-05T07:23:01.014Z,9.64
2023-01-05T07:25:31.553Z,9.67
2023-01-05T07:28:01.144Z,9.68
2023-01-05T07:30:31.909Z,9.75
2023-01-05T07:33:01.948Z,9.80
2023-01-05T07:35:31.333Z,9.83
2023-01-05T07:38:00.849Z,9.81
2023-01-05T07:40:30.307Z,9.82
2023-01-05T07:42:59.764Z,9.84
2023-01-05T07:45:29.211Z,9.83
2023-01-05T07:48:00.251Z,9.81
2023-01-05T07:50:30.131Z,9.87
2023-01-05T07:53:00.586Z,9.89
2023-01-05T07:55:30.014Z,9.97
2023-01-05T07:57:59.363Z,9.94
2023-01-05T08:00:29.796Z,9.97
2023-01-05T08:03:00.592Z,9.99
2023-01-05T08:05:34.217Z,9.92
2023-01-05T08:08:03.702Z,9.88
2023-01-05T08:10:33.189Z,9.90
2023-01-05T08:13:21.711Z,9.85
2023-01-05T08:15:52.810Z,9.74
2023-01-05T08:18:24.685Z,9.73
2023-01-05T08:20:56.610Z,9.67
2023-01-05T08:23:28.522Z,9.65
2023-01-05T08:25:58.651Z,9.68
2023-01-05T08:28:35.010Z,9.59
2023-01-05T08:31:37.169Z,9.44
2023-01-05T08:34:08.247Z,9.38
2023-01-05T08:36:37.686Z,9.31
2023-01-05T08:39:07.732Z,9.31
2023-01-05T08:41:39.743Z,9.30
2023-01-05T08:44:13.620Z,9.29
2023-01-05T08:46:42.985Z,9.24
2023-01-05T08:49:13.768Z,9.27
2023-01-05T08:51:43.415Z,9.30
2023-01-05T08:54:12.927Z,9.42
2023-01-05T08:56:43.206Z,9.50
2023-01-05T08:59:14.411Z,9.56
2023-01-05T09:01:43.946Z,9.63
2023-01-05T09:04:14.748Z,9.70
2023-01-05T09:06:44.202Z,9.68
2023-01-05T09:09:13.766Z,9.73
2023-01-05T09:11:43.267Z,9.80
2023-01-05T09:14:15.823Z,9.87
2023-01-05T09:19:36.496Z,9.96
2023-01-05T09:22:05.876Z,10.01
2023-01-05T09:24:35.353Z,10.05
2023-01-05T09:27:07.487Z,10.04
2023-01-05T09:29:36.851Z,10.06
2023-01-05T09:32:08.291Z,10.10
2023-01-05T09:34:39.096Z,10.13
2023-01-05T09:37:09.119Z,10.08
2023-01-05T09:39:38.953Z,10.13
2023-01-05T09:42:13.864Z,10.14
2023-01-05T09:44:52.683Z,10.19
2023-01-05T09:47:37.704Z,10.25
2023-01-05T09:50:19.563Z,10.27
2023-01-05T09:52:49.642Z,10.32
2023-01-05T09:55:21.861Z,10.27
2023-01-05T09:57:59.784Z,10.25
2023-01-05T10:00:30.582Z,10.28
2023-01-05T10:03:06.443Z,10.37
2023-01-05T10:05:43.431Z,10.40
2023-01-05T10:08:20.667Z,10.40
2023-01-05T10:11:26.462Z,10.39
2023-01-05T10:14:03.323Z,10.38
2023-01-05T10:16:33.845Z,10.43
2023-01-05T10:19:03.671Z,10.42
2023-01-05T10:21:48.412Z,10.45
2023-01-05T10:24:38.203Z,10.50
2023-01-05T10:27:25.658Z,10.50
2023-01-05T10:30:14.098Z,10.54
2023-01-05T10:33:21.811Z,10.54
2023-01-05T10:36:05.310Z,10.59
2023-01-05T10:38:55.670Z,10.56
2023-01-05T10:41:38.068Z,10.56
2023-01-05T10:44:59.108Z,10.58
2023-01-05T10:47:33.317Z,10.56
2023-01-05T10:50:04.947Z,10.58
2023-01-05T10:52:34.563Z,10.59
2023-01-05T10:55:17.579Z,10.64
2023-01-05T10:57:48.483Z,10.63
2023-01-05T11:00:22.919Z,10.67
2023-01-05T11:03:04.235Z,10.66
2023-01-05T11:05:37.179Z,10.64
2023-01-05T11:08:16.176Z,10.59
2023-01-05T11:10:55.219Z,10.61
2023-01-05T11:13:33.402Z,10.52
2023-01-05T11:16:12.809Z,10.39
2023-01-05T11:18:50.998Z,10.30
2023-01-05T11:21:23.216Z,10.18
2023-01-05T11:23:55.919Z,10.11
2023-01-05T11:26:34.704Z,10.06
2023-01-05T11:29:17.144Z,10.02
2023-01-05T11:31:54.139Z,10.03
2023-01-05T11:34:40.720Z,10.12
2023-01-05T11:37:25.822Z,10.20
2023-01-05T11:39:58.548Z,10.24
2023-01-05T11:42:35.745Z,10.28
2023-01-05T11:45:17.793Z,10.34
2023-01-05T11:47:50.794Z,10.17
2023-01-05T11:50:25.017Z,10.27
2023-01-05T11:52:56.906Z,10.22
2023-01-05T11:55:38.198Z,10.27
2023-01-05T11:58:23.198Z,10.31
2023-01-05T12:01:38.331Z,10.38
2023-01-05T12:04:28.295Z,10.51
2023-01-05T12:07:17.512Z,10.67
2023-01-05T12:09:56.502Z,10.77
2023-01-05T12:12:47.895Z,10.92
2023-01-05T12:15:53.440Z,10.92
2023-01-05T12:18:54.075Z,10.99
2023-01-05T12:21:26.078Z,10.94
2023-01-05T12:24:36.299Z,10.92
2023-01-05T12:27:32.166Z,10.89
2023-01-05T12:34:12.710Z,10.77
2023-01-05T12:37:19.303Z,10.73
2023-01-05T12:40:29.158Z,10.70
2023-01-05T12:43:10.357Z,10.74
2023-01-05T12:46:08.666Z,10.72
2023-01-05T12:48:44.317Z,10.77
2023-01-05T12:51:20.543Z,10.74
2023-01-05T12:53:58.140Z,10.73
2023-01-05T12:56:35.743Z,10.76
2023-01-05T12:59:18.552Z,10.78
2023-01-05T13:02:01.371Z,10.85
2023-01-05T13:04:47.558Z,10.92
2023-01-05T13:07:25.047Z,10.94
2023-01-05T13:10:03.790Z,10.99
2023-01-05T13:12:35.349Z,11.04
2023-01-05T13:15:21.679Z,11.10
2023-01-05T13:17:55.693Z,11.16
2023-01-05T13:20:34.802Z,11.16
2023-01-05T13:23:13.527Z,11.15
2023-01-05T13:25:54.034Z,11.13
2023-01-05T13:28:27.506Z,11.07
2023-01-05T13:31:35.028Z,11.09
2023-01-05T13:34:44.415Z,11.04
2023-01-05T13:37:45.823Z,11.01
2023-01-05T13:40:53.921Z,11.00
2023-01-05T13:44:17.762Z,10.84
2023-01-05T13:47:11.614Z,10.63
2023-01-05T13:50:18.338Z,10.62
2023-01-05T13:53:08.095Z,10.57
2023-01-05T13:55:48.441Z,10.45
2023-01-05T13:58:39.668Z,10.35
2023-01-05T14:01:14.981Z,10.32
2023-01-05T14:03:53.083Z,10.28
2023-01-05T14:06:29.633Z,10.28
2023-01-05T14:11:38.692Z,10.28
2023-01-05T14:17:02.768Z,10.26
2023-01-05T14:19:53.317Z,10.20
2023-01-05T14:22:38.799Z,10.17
2023-01-05T14:25:53.961Z,10.07
2023-01-05T14:28:49.220Z,10.14
2023-01-05T14:31:38.420Z,10.06
2023-01-05T14:34:16.360Z,10.06
2023-01-05T14:37:01.473Z,10.03
2023-01-05T14:39:44.151Z,9.98
2023-01-05T14:42:33.357Z,10.02
2023-01-05T14:45:08.108Z,9.90
2023-01-05T14:47:43.241Z,9.93
2023-01-05T14:50:36.779Z,9.85
2023-01-05T14:53:15.372Z,9.76
2023-01-05T14:56:23.436Z,9.68
2023-01-05T14:59:23.371Z,9.65
2023-01-05T15:01:57.962Z,9.52
2023-01-05T15:04:32.847Z,9.45
2023-01-05T15:07:29.892Z,9.36
2023-01-05T15:10:19.944Z,9.41
2023-01-05T15:13:43.491Z,9.39
2023-01-05T15:16:23.393Z,9.41
2023-01-05T15:19:26.851Z,9.31
2023-01-05T15:22:37.267Z,9.29
2023-01-05T15:25:57.799Z,9.28
2023-01-05T15:29:46.373Z,9.23
2023-01-05T15:32:22.180Z,9.16
2023-01-05T15:34:58.186Z,9.13
2023-01-05T15:37:35.008Z,9.07
2023-01-05T15:40:09.164Z,8.98
2023-01-05T15:42:44.464Z,8.97
2023-01-05T15:45:22.912Z,9.01
2023-01-05T15:47:53.551Z,8.98
2023-01-05T15:50:27.573Z,8.91
2023-01-05T15:53:00.331Z,8.88
2023-01-05T15:55:31.547Z,8.84
2023-01-05T15:58:04.716Z,8.81
2023-01-05T16:00:37.338Z,8.79
2023-01-05T16:03:22.763Z,8.80
2023-01-05T16:05:58.681Z,8.74
2023-01-05T16:08:28.560Z,8.71
2023-01-05T16:11:02.483Z,8.68
2023-01-05T16:13:39.669Z,8.66
2023-01-05T16:16:51.231Z,8.60
2023-01-05T16:19:29.831Z,8.57
2023-01-05T16:22:07.578Z,8.55
2023-01-05T16:24:49.619Z,8.52
2023-01-05T16:27:19.680Z,8.49
2023-01-05T16:29:50.405Z,8.49
2023-01-05T16:32:36.687Z,8.43
2023-01-05T16:35:25.727Z,8.38
2023-01-05T16:38:19.061Z,8.35
2023-01-05T16:41:17.023Z,8.32
2023-01-05T16:43:58.247Z,8.32
2023-01-05T16:46:38.941Z,8.30
2023-01-05T16:49:43.477Z,8.29
2023-01-05T16:52:24.417Z,8.26
2023-01-05T16:55:28.255Z,8.20
2023-01-05T16:58:00.362Z,8.23
2023-01-05T17:00:40.243Z,8.17
2023-01-05T17:03:31.294Z,8.16
2023-01-05T17:06:03.267Z,8.18
2023-01-05T17:08:36.769Z,8.13
2023-01-05T17:11:12.647Z,8.16
2023-01-05T17:13:47.934Z,8.20
2023-01-05T17:16:17.773Z,8.22
2023-01-05T17:18:48.083Z,8.19
2023-01-05T17:21:24.876Z,8.21
2023-01-05T17:23:57.804Z,8.16
2023-01-05T17:26:38.603Z,8.14
2023-01-05T17:29:11.293Z,8.12
2023-01-05T17:31:40.791Z,8.11
2023-01-05T17:34:10.242Z,8.15
2023-01-05T17:36:41.499Z,8.08
2023-01-05T17:39:15.287Z,8.03
2023-01-05T17:41:44.924Z,8.02
2023-01-05T17:44:14.726Z,8.04
2023-01-05T17:46:47.257Z,8.02
2023-01-05T17:49:20.021Z,8.03
2023-01-05T17:51:50.905Z,8.02
2023-01-05T17:54:20.339Z,7.99
2023-01-05T17:56:49.825Z,8.00
2023-01-05T17:59:19.285Z,8.01
2023-01-05T18:01:48.840Z,8.01
2023-01-05T18:04:18.250Z,8.02
2023-01-05T18:09:19.733Z,7.99
2023-01-05T18:11:50.185Z,7.96
2023-01-05T18:14:21.163Z,7.95
2023-01-05T18:16:50.611Z,7.96
2023-01-05T18:19:20.439Z,7.93
2023-01-05T18:21:49.849Z,7.91
2023-01-05T18:24:20.728Z,7.90
2023-01-05T18:26:53.991Z,7.94
2023-01-05T18:29:25.137Z,7.95
2023-01-05T18:31:55.158Z,7.99
2023-01-05T18:34:26.747Z,7.99
2023-01-05T18:37:01.981Z,8.04
2023-01-05T18:39:43.109Z,8.06
2023-01-05T18:42:12.628Z,8.24
2023-01-05T18:44:42.025Z,8.26
2023-01-05T18:47:11.506Z,8.32
2023-01-05T18:49:40.977Z,8.25
2023-01-05T18:52:10.765Z,8.29
2023-01-05T18:54:42.111Z,8.32
2023-01-05T18:57:11.612Z,8.32
2023-01-05T18:59:41.205Z,8.33
2023-01-05T19:02:16.992Z,8.32
2023-01-05T19:04:46.566Z,8.33
2023-01-05T19:07:16.438Z,8.49
2023-01-05T19:09:47.253Z,8.54
2023-01-05T19:12:16.739Z,8.60
2023-01-05T19:14:46.287Z,8.59
2023-01-05T19:17:15.768Z,8.67
2023-01-05T19:19:45.272Z,8.73
2023-01-05T19:22:14.656Z,8.71
2023-01-05T19:24:44.097Z,8.82
2023-01-05T19:27:14.852Z,8.85
2023-01-05T19:29:44.318Z,9.00
2023-01-05T19:32:13.787Z,9.00
2023-01-05T19:34:43.289Z,8.94
2023-01-05T19:37:12.710Z,8.90
2023-01-05T19:39:42.189Z,8.96
2023-01-05T19:42:11.577Z,8.96
2023-01-05T19:44:42.372Z,8.82
2023-01-05T19:47:11.818Z,8.90
2023-01-05T19:49:41.272Z,8.95
2023-01-05T19:52:11.539Z,9.00
2023-01-05T19:54:41.050Z,9.02
2023-01-05T19:57:10.430Z,8.98
2023-01-05T19:59:41.262Z,8.95
2023-01-05T20:02:12.456Z,8.97
2023-01-05T20:04:42.450Z,9.06
2023-01-05T20:07:11.896Z,9.09
2023-01-05T20:09:41.340Z,9.05
2023-01-05T20:12:15.626Z,9.02
2023-01-05T20:14:46.738Z,9.04
2023-01-05T20:17:18.411Z,9.18
2023-01-05T20:19:47.856Z,9.13
2023-01-05T20:22:17.298Z,9.21
2023-01-05T20:24:46.744Z,9.28
2023-01-05T20:27:18.625Z,9.23
2023-01-05T20:29:49.778Z,9.23
2023-01-05T20:32:23.268Z,9.25
2023-01-05T20:34:59.194Z,9.32
2023-01-05T20:37:31.170Z,9.38
2023-01-05T20:40:03.184Z,9.43
2023-01-05T20:42:32.829Z,9.36
2023-01-05T20:45:04.038Z,9.35
2023-01-05T20:47:43.233Z,9.34
2023-01-05T20:50:16.636Z,9.36
2023-01-05T20:52:46.064Z,9.34
2023-01-05T20:55:17.823Z,9.36
2023-01-05T20:57:48.445Z,9.35
2023-01-05T21:00:19.421Z,9.31
2023-01-05T21:02:51.530Z,9.30
2023-01-05T21:05:21.118Z,9.30
2023-01-05T21:07:50.542Z,9.25
2023-01-05T21:10:22.660Z,9.28
2023-01-05T21:12:52.293Z,9.29
2023-01-05T21:15:24.448Z,9.24
2023-01-05T21:17:54.007Z,9.20
2023-01-05T21:20:23.503Z,9.14
2023-01-05T21:22:52.967Z,9.06
2023-01-05T21:25:22.409Z,8.96
2023-01-05T21:27:51.845Z,8.93
2023-01-05T21:30:22.585Z,8.88
2023-01-05T21:32:51.955Z,8.87
2023-01-05T21:35:21.395Z,8.80
2023-01-05T21:37:50.918Z,8.74
2023-01-05T21:40:20.431Z,8.66
2023-01-05T21:42:50.360Z,8.74
2023-01-05T21:45:20.394Z,8.75
2023-01-05T21:47:57.401Z,8.77
2023-01-05T21:50:44.331Z,8.82
2023-01-05T21:53:34.759Z,8.85
2023-01-05T21:56:27.291Z,8.93
2023-01-05T21:59:00.266Z,8.87
2023-01-05T22:01:30.994Z,8.88
2023-01-05T22:04:02.036Z,8.85
2023-01-05T22:06:31.556Z,8.80
2023-01-05T22:09:01.032Z,8.74
2023-01-05T22:11:30.402Z,8.67
2023-01-05T22:13:59.902Z,8.66
2023-01-05T22:16:29.531Z,8.57
2023-01-05T22:18:59.079Z,8.53
2023-01-05T22:21:30.941Z,8.51
2023-01-05T22:24:00.621Z,8.46
2023-01-05T22:26:30.050Z,8.42
2023-01-05T22:28:59.472Z,8.38
2023-01-05T22:31:32.039Z,8.35
2023-01-05T22:34:02.385Z,8.31
2023-01-05T22:36:33.684Z,8.27
2023-01-05T22:39:03.075Z,8.21
2023-01-05T22:41:33.252Z,8.14
2023-01-05T22:44:04.297Z,8.07
2023-01-05T22:46:33.855Z,8.01
2023-01-05T22:49:03.540Z,7.96
2023-01-05T22:51:37.378Z,7.91
2023-01-05T22:54:07.040Z,7.83
2023-01-05T22:56:37.142Z,7.74
2023-01-05T22:59:06.884Z,7.65
2023-01-05T23:01:39.337Z,7.58
2023-01-05T23:04:08.963Z,7.53
2023-01-05T23:06:39.906Z,7.54
2023-01-05T23:09:15.320Z,7.51
2023-01-05T23:11:46.808Z,7.45
2023-01-05T23:14:18.337Z,7.44
2023-01-05T23:16:47.958Z,7.42
2023-01-05T23:19:17.646Z,7.41
2023-01-05T23:21:48.645Z,7.40
2023-01-05T23:24:18.109Z,7.37
2023-01-05T23:26:47.543Z,7.34
2023-01-05T23:29:16.955Z,7.34
2023-01-05T23:31:46.493Z,7.31
2023-01-05T23:34:16.004Z,7.29
2023-01-05T23:36:46.766Z,7.28
2023-01-05T23:39:16.227Z,7.28
2023-01-05T23:41:45.761Z,7.28
2023-01-05T23:44:15.338Z,7.29
2023-01-05T23:46:44.824Z,7.30
2023-01-05T23:49:14.172Z,7.31
2023-01-05T23:51:43.681Z,7.32
2023-01-05T23:54:14.653Z,7.33
2023-01-05T23:56:44.031Z,7.34
2023-01-05T23:59:13.502Z,7.38
